Palm Beach, Florida
Current Conditions -  °F | °C
As of 4:53 PM on Wednesday 22 Oct 2014 (Local Time) from KPBI Reporting Station
Broken Clouds Broken Clouds  
Wind Chill: 81°   Ceiling: 4000
Heat Index: 85°   Visibility: 10mi
Dew Point: 71°   Wind: 8mph
Humidity: 72%   Direction: 50°NE
Pressure: 29.9"   Gusts: NA
Location:  26.7°N, 80.04°W
Report Text: KPBI 222053Z 05007KT 10SM SCT029 BKN040 BKN200 27/22 A2990 RMK AO2 SLP124 T02720217 55012
Loading
Personal Weather Stations






























Interactive Weather Map
Tropical Storm Tracking
New forecast layout! Learn more

10-Day Weather Forecast

Advertisements
Track Severe Weather on mobile